Portada
METAR-TAF:

METAR-TAF

Aeropuertos :

Shahrekord, Irán

latitud: 32-20N, longitud: 050-51E, altitud: 2078 m

Observación

El informe se hizo hace 15 minutos, a las 01:00 UTC
Viento 4 kt del oeste-noroeste
Temperatura 0°C
Humedad 80%
Presión 1018 hPa
Visibilidad 10 km o más
sin nubes por debajo de 1500 m y sin presencia de cumulonimbus.

METAR: OIFS 210100Z 29004KT CAVOK M00/M03 Q1018

Hora: 04:45 (01:15 UTC)


TAF: falta

Observaciones y pronósticos meteorológicos de más de 4000 aeropuertos (mensajes METAR y TAF).

Los puntos amarillos y rojos representan las estaciones disponibles.

Ponga el ratón en el punto deseado para ver el nombre de la estación.

Haga clic para ver las observaciones y los pronósticos meteorológicos.

Para cambiar el mapa : haga clic en los botones verdes con una cruz de color negro para hacer un zoom, en el botón verde con un guión para alejar o en las flechas verdes para mapas adyacentes.


METAR-TAF: